sensor_id;sensor_type;location;lat;lon;timestamp;temperature;humidity
25741;DHT22;13592;50.838;4.412;2023-02-28T00:01:58;4.20;97.00
25741;DHT22;13592;50.838;4.412;2023-02-28T00:04:26;4.20;96.70
25741;DHT22;13592;50.838;4.412;2023-02-28T00:06:54;4.00;97.20
25741;DHT22;13592;50.838;4.412;2023-02-28T00:09:20;4.00;97.10
25741;DHT22;13592;50.838;4.412;2023-02-28T00:14:14;4.10;97.10
25741;DHT22;13592;50.838;4.412;2023-02-28T00:16:40;4.20;97.10
25741;DHT22;13592;50.838;4.412;2023-02-28T00:19:12;4.20;96.90
25741;DHT22;13592;50.838;4.412;2023-02-28T00:21:40;4.20;96.60
25741;DHT22;13592;50.838;4.412;2023-02-28T00:24:06;4.20;97.00
25741;DHT22;13592;50.838;4.412;2023-02-28T00:26:35;4.20;97.30
25741;DHT22;13592;50.838;4.412;2023-02-28T00:29:01;4.10;96.80
25741;DHT22;13592;50.838;4.412;2023-02-28T00:31:27;4.20;97.10
25741;DHT22;13592;50.838;4.412;2023-02-28T00:33:52;4.10;97.00
25741;DHT22;13592;50.838;4.412;2023-02-28T00:36:18;4.00;97.20
25741;DHT22;13592;50.838;4.412;2023-02-28T00:38:44;3.90;97.40
25741;DHT22;13592;50.838;4.412;2023-02-28T00:43:42;4.10;97.50
25741;DHT22;13592;50.838;4.412;2023-02-28T00:48:39;4.00;97.40
25741;DHT22;13592;50.838;4.412;2023-02-28T00:51:05;4.00;97.80
25741;DHT22;13592;50.838;4.412;2023-02-28T00:53:32;4.00;97.60
25741;DHT22;13592;50.838;4.412;2023-02-28T00:56:02;4.00;97.60
25741;DHT22;13592;50.838;4.412;2023-02-28T00:58:31;4.00;97.60
25741;DHT22;13592;50.838;4.412;2023-02-28T01:03:26;4.00;97.70
25741;DHT22;13592;50.838;4.412;2023-02-28T01:05:52;4.10;97.70
25741;DHT22;13592;50.838;4.412;2023-02-28T01:08:19;3.90;97.50
25741;DHT22;13592;50.838;4.412;2023-02-28T01:10:46;3.90;97.90
25741;DHT22;13592;50.838;4.412;2023-02-28T01:13:11;3.80;97.80
25741;DHT22;13592;50.838;4.412;2023-02-28T01:15:42;3.80;97.90
25741;DHT22;13592;50.838;4.412;2023-02-28T01:18:10;3.80;98.00
25741;DHT22;13592;50.838;4.412;2023-02-28T01:20:46;3.70;98.20
25741;DHT22;13592;50.838;4.412;2023-02-28T01:23:12;3.70;98.10
25741;DHT22;13592;50.838;4.412;2023-02-28T01:28:08;3.70;97.90
25741;DHT22;13592;50.838;4.412;2023-02-28T01:30:34;3.80;98.00
25741;DHT22;13592;50.838;4.412;2023-02-28T01:33:01;3.90;98.20
25741;DHT22;13592;50.838;4.412;2023-02-28T01:35:34;3.90;97.80
25741;DHT22;13592;50.838;4.412;2023-02-28T01:40:31;3.80;97.90
25741;DHT22;13592;50.838;4.412;2023-02-28T01:43:05;3.70;98.00
25741;DHT22;13592;50.838;4.412;2023-02-28T01:45:36;3.70;98.60
25741;DHT22;13592;50.838;4.412;2023-02-28T01:48:05;3.60;98.30
25741;DHT22;13592;50.838;4.412;2023-02-28T01:50:38;3.60;98.50
25741;DHT22;13592;50.838;4.412;2023-02-28T01:55:33;3.50;98.50
25741;DHT22;13592;50.838;4.412;2023-02-28T01:58:00;3.60;98.90
25741;DHT22;13592;50.838;4.412;2023-02-28T02:00:29;3.60;98.50
25741;DHT22;13592;50.838;4.412;2023-02-28T02:02:56;3.60;98.40
25741;DHT22;13592;50.838;4.412;2023-02-28T02:05:27;3.60;98.70
25741;DHT22;13592;50.838;4.412;2023-02-28T02:08:10;3.50;98.60
25741;DHT22;13592;50.838;4.412;2023-02-28T02:10:43;3.50;98.80
25741;DHT22;13592;50.838;4.412;2023-02-28T02:15:47;3.50;98.60
25741;DHT22;13592;50.838;4.412;2023-02-28T02:23:58;3.30;99.00
25741;DHT22;13592;50.838;4.412;2023-02-28T02:34:28;3.60;98.90
25741;DHT22;13592;50.838;4.412;2023-02-28T02:39:59;3.40;99.20
25741;DHT22;13592;50.838;4.412;2023-02-28T02:42:28;3.30;99.50
25741;DHT22;13592;50.838;4.412;2023-02-28T02:47:30;3.40;98.90
25741;DHT22;13592;50.838;4.412;2023-02-28T02:49:57;3.40;99.10
25741;DHT22;13592;50.838;4.412;2023-02-28T02:54:54;3.30;99.30
25741;DHT22;13592;50.838;4.412;2023-02-28T02:57:35;3.30;99.40
25741;DHT22;13592;50.838;4.412;2023-02-28T03:00:04;3.30;99.50
25741;DHT22;13592;50.838;4.412;2023-02-28T03:02:33;3.20;99.40
25741;DHT22;13592;50.838;4.412;2023-02-28T03:05:01;3.30;99.30
25741;DHT22;13592;50.838;4.412;2023-02-28T03:07:28;3.20;99.50
25741;DHT22;13592;50.838;4.412;2023-02-28T03:09:56;3.10;99.70
25741;DHT22;13592;50.838;4.412;2023-02-28T03:12:56;3.10;99.90
25741;DHT22;13592;50.838;4.412;2023-02-28T03:17:55;3.20;99.40
25741;DHT22;13592;50.838;4.412;2023-02-28T03:20:38;3.20;99.30
25741;DHT22;13592;50.838;4.412;2023-02-28T03:23:25;3.10;99.30
25741;DHT22;13592;50.838;4.412;2023-02-28T03:26:04;3.10;99.40
25741;DHT22;13592;50.838;4.412;2023-02-28T03:28:42;3.10;99.60
25741;DHT22;13592;50.838;4.412;2023-02-28T03:31:20;3.20;99.80
25741;DHT22;13592;50.838;4.412;2023-02-28T03:34:29;3.10;99.70
25741;DHT22;13592;50.838;4.412;2023-02-28T03:36:39;3.00;99.90
25741;DHT22;13592;50.838;4.412;2023-02-28T03:44:45;3.00;99.90
25741;DHT22;13592;50.838;4.412;2023-02-28T03:47:16;3.00;99.80
25741;DHT22;13592;50.838;4.412;2023-02-28T03:49:46;2.90;99.90
25741;DHT22;13592;50.838;4.412;2023-02-28T03:52:14;3.00;99.90
25741;DHT22;13592;50.838;4.412;2023-02-28T03:54:44;3.10;99.90
25741;DHT22;13592;50.838;4.412;2023-02-28T03:57:26;3.10;99.90
25741;DHT22;13592;50.838;4.412;2023-02-28T03:59:59;2.90;99.90
25741;DHT22;13592;50.838;4.412;2023-02-28T04:02:36;2.80;99.90
25741;DHT22;13592;50.838;4.412;2023-02-28T04:05:03;2.90;99.90
25741;DHT22;13592;50.838;4.412;2023-02-28T04:07:29;2.90;99.90
25741;DHT22;13592;50.838;4.412;2023-02-28T04:09:55;2.90;99.90
25741;DHT22;13592;50.838;4.412;2023-02-28T04:12:31;2.80;99.90
25741;DHT22;13592;50.838;4.412;2023-02-28T04:15:00;2.90;99.90
25741;DHT22;13592;50.838;4.412;2023-02-28T04:17:28;2.80;99.90
25741;DHT22;13592;50.838;4.412;2023-02-28T04:22:40;2.80;99.90
25741;DHT22;13592;50.838;4.412;2023-02-28T04:25:17;2.80;99.90
25741;DHT22;13592;50.838;4.412;2023-02-28T04:30:12;2.80;99.90
25741;DHT22;13592;50.838;4.412;2023-02-28T04:32:40;2.90;99.90
25741;DHT22;13592;50.838;4.412;2023-02-28T04:35:07;2.80;99.90
25741;DHT22;13592;50.838;4.412;2023-02-28T04:37:33;2.80;99.90
25741;DHT22;13592;50.838;4.412;2023-02-28T04:42:31;2.80;99.90
25741;DHT22;13592;50.838;4.412;2023-02-28T04:45:04;2.70;99.90
25741;DHT22;13592;50.838;4.412;2023-02-28T04:47:33;2.70;99.90
25741;DHT22;13592;50.838;4.412;2023-02-28T04:50:01;2.70;99.90
25741;DHT22;13592;50.838;4.412;2023-02-28T04:52:27;2.80;99.90
25741;DHT22;13592;50.838;4.412;2023-02-28T04:54:56;2.70;99.90
25741;DHT22;13592;50.838;4.412;2023-02-28T04:57:22;2.60;99.90
25741;DHT22;13592;50.838;4.412;2023-02-28T04:59:50;2.60;99.90
25741;DHT22;13592;50.838;4.412;2023-02-28T05:02:16;2.60;99.90
25741;DHT22;13592;50.838;4.412;2023-02-28T05:04:42;2.60;99.90
25741;DHT22;13592;50.838;4.412;2023-02-28T05:07:08;2.80;99.90
25741;DHT22;13592;50.838;4.412;2023-02-28T05:09:38;2.80;99.90
25741;DHT22;13592;50.838;4.412;2023-02-28T05:12:07;2.80;99.90
25741;DHT22;13592;50.838;4.412;2023-02-28T05:14:36;2.90;99.90
25741;DHT22;13592;50.838;4.412;2023-02-28T05:17:03;2.90;99.90
25741;DHT22;13592;50.838;4.412;2023-02-28T05:19:35;2.90;99.90
25741;DHT22;13592;50.838;4.412;2023-02-28T05:22:01;2.90;99.90
25741;DHT22;13592;50.838;4.412;2023-02-28T05:24:27;3.20;99.90
25741;DHT22;13592;50.838;4.412;2023-02-28T05:26:53;3.10;99.90
25741;DHT22;13592;50.838;4.412;2023-02-28T05:29:19;3.10;99.90
25741;DHT22;13592;50.838;4.412;2023-02-28T05:31:45;3.00;99.90
25741;DHT22;13592;50.838;4.412;2023-02-28T05:34:11;3.10;99.90
25741;DHT22;13592;50.838;4.412;2023-02-28T05:36:40;3.20;99.90
25741;DHT22;13592;50.838;4.412;2023-02-28T05:41:44;3.40;99.90
25741;DHT22;13592;50.838;4.412;2023-02-28T05:44:10;3.30;99.90
25741;DHT22;13592;50.838;4.412;2023-02-28T05:46:35;3.30;99.90
25741;DHT22;13592;50.838;4.412;2023-02-28T05:51:30;3.30;99.90
25741;DHT22;13592;50.838;4.412;2023-02-28T05:56:24;3.30;99.90
25741;DHT22;13592;50.838;4.412;2023-02-28T05:59:02;3.30;99.90
25741;DHT22;13592;50.838;4.412;2023-02-28T06:01:37;3.30;99.90
25741;DHT22;13592;50.838;4.412;2023-02-28T06:04:09;3.30;99.90
25741;DHT22;13592;50.838;4.412;2023-02-28T06:06:37;3.30;99.90
25741;DHT22;13592;50.838;4.412;2023-02-28T06:11:32;3.60;99.90
25741;DHT22;13592;50.838;4.412;2023-02-28T06:16:46;3.50;99.90
25741;DHT22;13592;50.838;4.412;2023-02-28T06:19:12;3.40;99.90
25741;DHT22;13592;50.838;4.412;2023-02-28T06:21:37;3.50;99.90
25741;DHT22;13592;50.838;4.412;2023-02-28T06:24:05;3.60;99.90
25741;DHT22;13592;50.838;4.412;2023-02-28T06:28:59;3.40;99.90
25741;DHT22;13592;50.838;4.412;2023-02-28T06:31:28;3.50;99.90
25741;DHT22;13592;50.838;4.412;2023-02-28T06:33:54;3.70;99.90
25741;DHT22;13592;50.838;4.412;2023-02-28T06:36:20;3.60;99.90
25741;DHT22;13592;50.838;4.412;2023-02-28T06:38:45;3.60;99.90
25741;DHT22;13592;50.838;4.412;2023-02-28T06:41:13;3.50;99.90
25741;DHT22;13592;50.838;4.412;2023-02-28T06:43:40;3.40;99.90
25741;DHT22;13592;50.838;4.412;2023-02-28T06:46:07;3.60;99.90
25741;DHT22;13592;50.838;4.412;2023-02-28T06:48:35;3.70;99.90
25741;DHT22;13592;50.838;4.412;2023-02-28T06:51:22;3.90;99.90
25741;DHT22;13592;50.838;4.412;2023-02-28T06:53:50;4.10;99.90
25741;DHT22;13592;50.838;4.412;2023-02-28T06:56:17;4.10;99.90
25741;DHT22;13592;50.838;4.412;2023-02-28T06:58:49;3.90;99.90
25741;DHT22;13592;50.838;4.412;2023-02-28T07:01:16;3.70;99.90
25741;DHT22;13592;50.838;4.412;2023-02-28T07:06:28;3.70;99.90
25741;DHT22;13592;50.838;4.412;2023-02-28T07:08:54;3.80;99.90
25741;DHT22;13592;50.838;4.412;2023-02-28T07:11:20;3.80;99.90
25741;DHT22;13592;50.838;4.412;2023-02-28T07:16:21;4.50;99.90
25741;DHT22;13592;50.838;4.412;2023-02-28T07:18:47;4.80;99.90
25741;DHT22;13592;50.838;4.412;2023-02-28T07:21:16;4.60;99.90
25741;DHT22;13592;50.838;4.412;2023-02-28T07:23:41;4.60;99.90
25741;DHT22;13592;50.838;4.412;2023-02-28T07:26:11;4.60;99.90
25741;DHT22;13592;50.838;4.412;2023-02-28T07:28:44;4.70;99.60
25741;DHT22;13592;50.838;4.412;2023-02-28T07:31:11;4.80;99.80
25741;DHT22;13592;50.838;4.412;2023-02-28T07:33:37;4.70;99.80
25741;DHT22;13592;50.838;4.412;2023-02-28T07:36:06;4.90;99.70
25741;DHT22;13592;50.838;4.412;2023-02-28T07:38:36;5.10;99.30
25741;DHT22;13592;50.838;4.412;2023-02-28T07:41:05;5.30;99.20
25741;DHT22;13592;50.838;4.412;2023-02-28T07:43:33;5.40;98.60
25741;DHT22;13592;50.838;4.412;2023-02-28T07:46:10;5.50;98.90
25741;DHT22;13592;50.838;4.412;2023-02-28T07:48:36;5.80;98.40
25741;DHT22;13592;50.838;4.412;2023-02-28T07:51:06;6.30;97.70
25741;DHT22;13592;50.838;4.412;2023-02-28T07:53:35;6.90;97.30
25741;DHT22;13592;50.838;4.412;2023-02-28T07:56:02;8.00;96.00
25741;DHT22;13592;50.838;4.412;2023-02-28T07:58:28;9.10;93.80
25741;DHT22;13592;50.838;4.412;2023-02-28T08:00:54;9.80;91.80
25741;DHT22;13592;50.838;4.412;2023-02-28T08:03:23;9.60;91.50
25741;DHT22;13592;50.838;4.412;2023-02-28T08:05:51;9.00;91.70
25741;DHT22;13592;50.838;4.412;2023-02-28T08:08:18;8.90;92.10
25741;DHT22;13592;50.838;4.412;2023-02-28T08:10:44;8.50;92.50
25741;DHT22;13592;50.838;4.412;2023-02-28T08:13:10;8.20;92.50
25741;DHT22;13592;50.838;4.412;2023-02-28T08:15:35;7.90;92.00
25741;DHT22;13592;50.838;4.412;2023-02-28T08:18:01;7.50;93.10
25741;DHT22;13592;50.838;4.412;2023-02-28T08:20:28;7.40;93.60
25741;DHT22;13592;50.838;4.412;2023-02-28T08:25:24;7.20;93.90
25741;DHT22;13592;50.838;4.412;2023-02-28T08:27:51;7.20;93.80
25741;DHT22;13592;50.838;4.412;2023-02-28T08:30:17;7.40;93.30
25741;DHT22;13592;50.838;4.412;2023-02-28T08:32:46;7.40;93.10
25741;DHT22;13592;50.838;4.412;2023-02-28T08:35:11;7.30;92.60
25741;DHT22;13592;50.838;4.412;2023-02-28T08:37:38;7.10;93.50
25741;DHT22;13592;50.838;4.412;2023-02-28T08:40:13;7.10;93.20
25741;DHT22;13592;50.838;4.412;2023-02-28T08:42:44;6.80;93.40
25741;DHT22;13592;50.838;4.412;2023-02-28T08:45:19;6.50;93.40
25741;DHT22;13592;50.838;4.412;2023-02-28T08:47:47;6.50;93.30
25741;DHT22;13592;50.838;4.412;2023-02-28T08:50:14;6.50;92.70
25741;DHT22;13592;50.838;4.412;2023-02-28T08:52:44;6.20;93.90
25741;DHT22;13592;50.838;4.412;2023-02-28T08:55:15;6.20;93.40
25741;DHT22;13592;50.838;4.412;2023-02-28T08:57:41;6.20;94.50
25741;DHT22;13592;50.838;4.412;2023-02-28T09:00:07;6.40;93.40
25741;DHT22;13592;50.838;4.412;2023-02-28T09:02:33;6.40;93.00
25741;DHT22;13592;50.838;4.412;2023-02-28T09:04:58;6.30;92.40
25741;DHT22;13592;50.838;4.412;2023-02-28T09:07:30;6.30;92.60
25741;DHT22;13592;50.838;4.412;2023-02-28T09:09:59;6.30;93.60
25741;DHT22;13592;50.838;4.412;2023-02-28T09:12:27;6.30;92.00
25741;DHT22;13592;50.838;4.412;2023-02-28T09:15:03;6.30;92.80
25741;DHT22;13592;50.838;4.412;2023-02-28T09:17:30;6.40;92.40
25741;DHT22;13592;50.838;4.412;2023-02-28T09:20:02;6.40;92.90
25741;DHT22;13592;50.838;4.412;2023-02-28T09:22:27;6.60;92.80
25741;DHT22;13592;50.838;4.412;2023-02-28T09:24:54;6.90;91.80
25741;DHT22;13592;50.838;4.412;2023-02-28T09:27:23;7.30;91.10
25741;DHT22;13592;50.838;4.412;2023-02-28T09:29:49;8.00;90.00
25741;DHT22;13592;50.838;4.412;2023-02-28T09:32:16;8.50;85.70
25741;DHT22;13592;50.838;4.412;2023-02-28T09:34:44;9.20;85.00
25741;DHT22;13592;50.838;4.412;2023-02-28T09:37:11;10.60;83.70
25741;DHT22;13592;50.838;4.412;2023-02-28T09:39:37;12.90;79.20
25741;DHT22;13592;50.838;4.412;2023-02-28T09:42:05;15.90;70.50
25741;DHT22;13592;50.838;4.412;2023-02-28T09:44:45;18.30;62.00
25741;DHT22;13592;50.838;4.412;2023-02-28T09:47:16;19.90;54.50
25741;DHT22;13592;50.838;4.412;2023-02-28T09:49:45;20.40;51.80
25741;DHT22;13592;50.838;4.412;2023-02-28T09:52:30;21.10;48.70
25741;DHT22;13592;50.838;4.412;2023-02-28T09:55:00;20.30;47.40
25741;DHT22;13592;50.838;4.412;2023-02-28T09:57:42;19.20;48.70
25741;DHT22;13592;50.838;4.412;2023-02-28T10:05:15;18.70;50.10
25741;DHT22;13592;50.838;4.412;2023-02-28T10:10:53;20.60;47.10
25741;DHT22;13592;50.838;4.412;2023-02-28T10:16:25;22.20;43.30
25741;DHT22;13592;50.838;4.412;2023-02-28T10:18:54;21.10;42.20
25741;DHT22;13592;50.838;4.412;2023-02-28T10:21:57;19.80;44.10
25741;DHT22;13592;50.838;4.412;2023-02-28T10:27:01;19.70;44.00
25741;DHT22;13592;50.838;4.412;2023-02-28T10:29:31;18.40;45.10
25741;DHT22;13592;50.838;4.412;2023-02-28T10:31:57;18.20;45.20
25741;DHT22;13592;50.838;4.412;2023-02-28T10:34:29;18.90;44.40
25741;DHT22;13592;50.838;4.412;2023-02-28T10:37:07;19.30;44.10
25741;DHT22;13592;50.838;4.412;2023-02-28T10:39:45;20.50;41.90
25741;DHT22;13592;50.838;4.412;2023-02-28T10:42:25;21.30;40.50
25741;DHT22;13592;50.838;4.412;2023-02-28T10:45:26;21.50;40.20
25741;DHT22;13592;50.838;4.412;2023-02-28T10:55:56;19.30;40.80
25741;DHT22;13592;50.838;4.412;2023-02-28T10:58:38;19.10;41.40
25741;DHT22;13592;50.838;4.412;2023-02-28T11:01:22;18.70;41.80
25741;DHT22;13592;50.838;4.412;2023-02-28T11:03:48;18.30;42.80
25741;DHT22;13592;50.838;4.412;2023-02-28T11:06:30;17.50;43.30
25741;DHT22;13592;50.838;4.412;2023-02-28T11:11:29;17.50;43.50
25741;DHT22;13592;50.838;4.412;2023-02-28T11:14:03;17.70;43.20
25741;DHT22;13592;50.838;4.412;2023-02-28T11:16:33;17.90;43.80
25741;DHT22;13592;50.838;4.412;2023-02-28T11:21:38;17.50;44.70
25741;DHT22;13592;50.838;4.412;2023-02-28T11:24:12;17.30;44.50
25741;DHT22;13592;50.838;4.412;2023-02-28T11:26:43;17.40;44.10
25741;DHT22;13592;50.838;4.412;2023-02-28T11:29:11;16.70;44.20
25741;DHT22;13592;50.838;4.412;2023-02-28T11:31:38;16.20;46.30
25741;DHT22;13592;50.838;4.412;2023-02-28T11:34:21;15.80;46.20
25741;DHT22;13592;50.838;4.412;2023-02-28T11:36:51;15.40;47.20
25741;DHT22;13592;50.838;4.412;2023-02-28T11:39:18;14.90;46.90
25741;DHT22;13592;50.838;4.412;2023-02-28T11:47:37;12.40;51.60
25741;DHT22;13592;50.838;4.412;2023-02-28T11:50:16;11.60;52.60
25741;DHT22;13592;50.838;4.412;2023-02-28T11:53:00;10.90;53.30
25741;DHT22;13592;50.838;4.412;2023-02-28T11:55:36;10.30;56.70
25741;DHT22;13592;50.838;4.412;2023-02-28T11:58:17;10.00;59.10
25741;DHT22;13592;50.838;4.412;2023-02-28T12:11:37;9.10;58.60
25741;DHT22;13592;50.838;4.412;2023-02-28T12:27:15;8.90;58.90
25741;DHT22;13592;50.838;4.412;2023-02-28T12:29:53;9.10;58.70
25741;DHT22;13592;50.838;4.412;2023-02-28T12:35:14;8.90;60.80
25741;DHT22;13592;50.838;4.412;2023-02-28T12:37:43;8.80;60.90
25741;DHT22;13592;50.838;4.412;2023-02-28T12:40:14;8.60;59.40
25741;DHT22;13592;50.838;4.412;2023-02-28T12:42:49;8.70;59.80
25741;DHT22;13592;50.838;4.412;2023-02-28T12:47:50;8.40;58.00
25741;DHT22;13592;50.838;4.412;2023-02-28T12:50:18;8.30;64.90
25741;DHT22;13592;50.838;4.412;2023-02-28T12:53:08;8.30;61.60
25741;DHT22;13592;50.838;4.412;2023-02-28T12:55:53;8.40;60.40
25741;DHT22;13592;50.838;4.412;2023-02-28T12:58:40;8.40;60.30
25741;DHT22;13592;50.838;4.412;2023-02-28T13:09:14;8.30;63.20
25741;DHT22;13592;50.838;4.412;2023-02-28T13:11:46;8.50;61.20
25741;DHT22;13592;50.838;4.412;2023-02-28T13:16:58;8.40;60.90
25741;DHT22;13592;50.838;4.412;2023-02-28T13:19:29;8.30;60.60
25741;DHT22;13592;50.838;4.412;2023-02-28T13:21:56;8.30;60.50
25741;DHT22;13592;50.838;4.412;2023-02-28T13:34:28;8.20;59.90
25741;DHT22;13592;50.838;4.412;2023-02-28T13:37:41;8.20;59.90
25741;DHT22;13592;50.838;4.412;2023-02-28T13:47:48;8.00;62.60
25741;DHT22;13592;50.838;4.412;2023-02-28T14:08:58;7.90;61.70
25741;DHT22;13592;50.838;4.412;2023-02-28T14:11:35;7.90;62.40
25741;DHT22;13592;50.838;4.412;2023-02-28T14:14:02;8.00;62.90
25741;DHT22;13592;50.838;4.412;2023-02-28T14:16:48;8.10;62.30
25741;DHT22;13592;50.838;4.412;2023-02-28T14:35:57;7.50;63.20
25741;DHT22;13592;50.838;4.412;2023-02-28T14:38:32;7.60;63.00
25741;DHT22;13592;50.838;4.412;2023-02-28T14:46:39;7.70;62.70
25741;DHT22;13592;50.838;4.412;2023-02-28T14:49:07;7.60;63.30
25741;DHT22;13592;50.838;4.412;2023-02-28T14:51:39;7.60;62.40
25741;DHT22;13592;50.838;4.412;2023-02-28T14:54:06;7.60;64.10
25741;DHT22;13592;50.838;4.412;2023-02-28T14:56:37;7.60;62.70
25741;DHT22;13592;50.838;4.412;2023-02-28T14:59:46;7.50;64.20
25741;DHT22;13592;50.838;4.412;2023-02-28T15:02:07;7.60;63.30
25741;DHT22;13592;50.838;4.412;2023-02-28T15:04:32;7.60;62.90
25741;DHT22;13592;50.838;4.412;2023-02-28T15:07:10;7.60;66.70
25741;DHT22;13592;50.838;4.412;2023-02-28T15:09:42;7.70;65.40
25741;DHT22;13592;50.838;4.412;2023-02-28T15:12:13;7.60;64.10
25741;DHT22;13592;50.838;4.412;2023-02-28T15:14:42;7.70;63.70
25741;DHT22;13592;50.838;4.412;2023-02-28T15:17:11;7.70;63.10
25741;DHT22;13592;50.838;4.412;2023-02-28T15:19:55;7.60;64.40
25741;DHT22;13592;50.838;4.412;2023-02-28T15:22:27;7.70;63.10
25741;DHT22;13592;50.838;4.412;2023-02-28T15:24:55;7.50;67.70
25741;DHT22;13592;50.838;4.412;2023-02-28T15:27:31;7.30;64.30
25741;DHT22;13592;50.838;4.412;2023-02-28T15:29:58;7.30;67.60
25741;DHT22;13592;50.838;4.412;2023-02-28T15:32:30;7.50;70.60
25741;DHT22;13592;50.838;4.412;2023-02-28T15:34:58;7.50;69.50
25741;DHT22;13592;50.838;4.412;2023-02-28T15:37:26;7.40;70.50
25741;DHT22;13592;50.838;4.412;2023-02-28T15:39:53;7.40;70.20
25741;DHT22;13592;50.838;4.412;2023-02-28T15:42:20;7.50;66.20
25741;DHT22;13592;50.838;4.412;2023-02-28T15:44:50;7.60;65.20
25741;DHT22;13592;50.838;4.412;2023-02-28T15:47:17;7.30;65.10
25741;DHT22;13592;50.838;4.412;2023-02-28T15:52:34;7.20;67.70
25741;DHT22;13592;50.838;4.412;2023-02-28T15:57:35;7.10;71.20
25741;DHT22;13592;50.838;4.412;2023-02-28T16:00:02;7.20;72.30
25741;DHT22;13592;50.838;4.412;2023-02-28T16:02:33;7.30;70.20
25741;DHT22;13592;50.838;4.412;2023-02-28T16:05:13;7.40;69.90
25741;DHT22;13592;50.838;4.412;2023-02-28T16:07:43;7.30;70.30
25741;DHT22;13592;50.838;4.412;2023-02-28T16:10:13;7.20;69.70
25741;DHT22;13592;50.838;4.412;2023-02-28T16:12:48;7.20;71.10
25741;DHT22;13592;50.838;4.412;2023-02-28T16:15:17;7.30;67.90
25741;DHT22;13592;50.838;4.412;2023-02-28T16:17:44;7.30;69.40
25741;DHT22;13592;50.838;4.412;2023-02-28T16:20:22;7.30;69.50
25741;DHT22;13592;50.838;4.412;2023-02-28T16:22:49;7.10;70.20
25741;DHT22;13592;50.838;4.412;2023-02-28T16:25:18;7.00;68.70
25741;DHT22;13592;50.838;4.412;2023-02-28T16:27:45;7.00;68.40
25741;DHT22;13592;50.838;4.412;2023-02-28T16:30:22;7.00;71.90
25741;DHT22;13592;50.838;4.412;2023-02-28T16:32:50;6.90;70.00
25741;DHT22;13592;50.838;4.412;2023-02-28T16:35:16;6.90;71.50
25741;DHT22;13592;50.838;4.412;2023-02-28T16:37:43;6.90;70.20
25741;DHT22;13592;50.838;4.412;2023-02-28T16:40:13;6.80;69.60
25741;DHT22;13592;50.838;4.412;2023-02-28T16:42:39;6.80;70.30
25741;DHT22;13592;50.838;4.412;2023-02-28T16:45:10;6.90;71.40
25741;DHT22;13592;50.838;4.412;2023-02-28T16:47:39;6.80;72.30
25741;DHT22;13592;50.838;4.412;2023-02-28T16:50:12;6.70;73.10
25741;DHT22;13592;50.838;4.412;2023-02-28T16:52:39;6.60;73.60
25741;DHT22;13592;50.838;4.412;2023-02-28T16:55:07;6.60;72.40
25741;DHT22;13592;50.838;4.412;2023-02-28T16:57:35;6.60;72.50
25741;DHT22;13592;50.838;4.412;2023-02-28T17:00:01;6.70;73.30
25741;DHT22;13592;50.838;4.412;2023-02-28T17:02:31;6.90;73.90
25741;DHT22;13592;50.838;4.412;2023-02-28T17:04:57;6.90;73.80
25741;DHT22;13592;50.838;4.412;2023-02-28T17:07:32;6.80;73.90
25741;DHT22;13592;50.838;4.412;2023-02-28T17:10:00;6.70;73.70
25741;DHT22;13592;50.838;4.412;2023-02-28T17:12:34;6.50;75.00
25741;DHT22;13592;50.838;4.412;2023-02-28T17:15:02;6.40;74.00
25741;DHT22;13592;50.838;4.412;2023-02-28T17:17:28;6.40;74.80
25741;DHT22;13592;50.838;4.412;2023-02-28T17:19:54;6.40;74.30
25741;DHT22;13592;50.838;4.412;2023-02-28T17:22:21;6.50;72.60
25741;DHT22;13592;50.838;4.412;2023-02-28T17:27:22;6.40;74.70
25741;DHT22;13592;50.838;4.412;2023-02-28T17:29:48;6.40;74.30
25741;DHT22;13592;50.838;4.412;2023-02-28T17:32:18;6.20;75.10
25741;DHT22;13592;50.838;4.412;2023-02-28T17:34:44;6.20;76.30
25741;DHT22;13592;50.838;4.412;2023-02-28T17:37:11;6.20;75.70
25741;DHT22;13592;50.838;4.412;2023-02-28T17:39:36;6.20;75.80
25741;DHT22;13592;50.838;4.412;2023-02-28T17:42:02;6.30;76.20
25741;DHT22;13592;50.838;4.412;2023-02-28T17:44:31;6.30;76.40
25741;DHT22;13592;50.838;4.412;2023-02-28T17:46:59;6.20;75.50
25741;DHT22;13592;50.838;4.412;2023-02-28T17:49:26;6.10;76.50
25741;DHT22;13592;50.838;4.412;2023-02-28T17:51:52;6.00;76.60
25741;DHT22;13592;50.838;4.412;2023-02-28T17:54:18;6.00;76.50
25741;DHT22;13592;50.838;4.412;2023-02-28T17:59:34;6.10;76.90
25741;DHT22;13592;50.838;4.412;2023-02-28T18:02:01;6.10;77.10
25741;DHT22;13592;50.838;4.412;2023-02-28T18:04:37;6.00;76.50
25741;DHT22;13592;50.838;4.412;2023-02-28T18:07:07;6.00;76.90
25741;DHT22;13592;50.838;4.412;2023-02-28T18:09:35;6.00;76.80
25741;DHT22;13592;50.838;4.412;2023-02-28T18:12:06;6.00;76.90
25741;DHT22;13592;50.838;4.412;2023-02-28T18:14:32;6.10;76.80
25741;DHT22;13592;50.838;4.412;2023-02-28T18:17:00;6.00;76.60
25741;DHT22;13592;50.838;4.412;2023-02-28T18:19:25;5.90;77.10
25741;DHT22;13592;50.838;4.412;2023-02-28T18:21:51;5.80;77.90
25741;DHT22;13592;50.838;4.412;2023-02-28T18:24:18;5.90;78.40
25741;DHT22;13592;50.838;4.412;2023-02-28T18:26:51;6.10;77.40
25741;DHT22;13592;50.838;4.412;2023-02-28T18:29:21;5.90;77.50
25741;DHT22;13592;50.838;4.412;2023-02-28T18:31:49;5.70;78.30
25741;DHT22;13592;50.838;4.412;2023-02-28T18:34:19;5.80;78.40
25741;DHT22;13592;50.838;4.412;2023-02-28T18:36:50;5.70;78.20
25741;DHT22;13592;50.838;4.412;2023-02-28T18:39:17;5.60;78.60
25741;DHT22;13592;50.838;4.412;2023-02-28T18:41:45;5.60;79.20
25741;DHT22;13592;50.838;4.412;2023-02-28T18:44:17;5.70;79.10
25741;DHT22;13592;50.838;4.412;2023-02-28T18:46:46;5.80;78.20
25741;DHT22;13592;50.838;4.412;2023-02-28T18:49:13;5.80;78.70
25741;DHT22;13592;50.838;4.412;2023-02-28T18:51:42;5.80;77.70
25741;DHT22;13592;50.838;4.412;2023-02-28T18:54:09;5.80;77.90
25741;DHT22;13592;50.838;4.412;2023-02-28T18:56:39;5.70;78.00
25741;DHT22;13592;50.838;4.412;2023-02-28T18:59:10;5.70;77.30
25741;DHT22;13592;50.838;4.412;2023-02-28T19:01:39;5.60;78.50
25741;DHT22;13592;50.838;4.412;2023-02-28T19:04:12;5.50;78.00
25741;DHT22;13592;50.838;4.412;2023-02-28T19:06:44;5.50;77.90
25741;DHT22;13592;50.838;4.412;2023-02-28T19:09:12;5.50;78.80
25741;DHT22;13592;50.838;4.412;2023-02-28T19:11:37;5.50;78.30
25741;DHT22;13592;50.838;4.412;2023-02-28T19:14:06;5.60;77.90
25741;DHT22;13592;50.838;4.412;2023-02-28T19:16:36;5.60;78.90
25741;DHT22;13592;50.838;4.412;2023-02-28T19:19:09;5.60;78.30
25741;DHT22;13592;50.838;4.412;2023-02-28T19:21:35;5.70;79.50
25741;DHT22;13592;50.838;4.412;2023-02-28T19:26:29;5.50;78.70
25741;DHT22;13592;50.838;4.412;2023-02-28T19:28:55;5.40;80.20
25741;DHT22;13592;50.838;4.412;2023-02-28T19:31:26;5.30;79.50
25741;DHT22;13592;50.838;4.412;2023-02-28T19:33:53;5.40;79.50
25741;DHT22;13592;50.838;4.412;2023-02-28T19:36:22;5.40;79.50
25741;DHT22;13592;50.838;4.412;2023-02-28T19:38:50;5.50;80.30
25741;DHT22;13592;50.838;4.412;2023-02-28T19:43:44;5.40;78.50
25741;DHT22;13592;50.838;4.412;2023-02-28T19:46:15;5.40;78.60
25741;DHT22;13592;50.838;4.412;2023-02-28T19:48:43;5.40;79.90
25741;DHT22;13592;50.838;4.412;2023-02-28T19:53:38;5.30;79.40